sensor_id;sensor_type;location;lat;lon;timestamp;P1;durP1;ratioP1;P2;durP2;ratioP2
42192;SDS011;52467;40.114;18.306;2023-02-04T00:00:25;16.77;;;7.53;;
42192;SDS011;52467;40.114;18.306;2023-02-04T00:02:53;14.45;;;7.38;;
42192;SDS011;52467;40.114;18.306;2023-02-04T00:05:20;12.15;;;7.40;;
42192;SDS011;52467;40.114;18.306;2023-02-04T00:07:47;13.32;;;6.63;;
42192;SDS011;52467;40.114;18.306;2023-02-04T00:10:14;11.93;;;6.50;;
42192;SDS011;52467;40.114;18.306;2023-02-04T00:12:42;14.57;;;6.70;;
42192;SDS011;52467;40.114;18.306;2023-02-04T00:15:09;13.85;;;6.70;;
42192;SDS011;52467;40.114;18.306;2023-02-04T00:17:36;15.48;;;6.95;;
42192;SDS011;52467;40.114;18.306;2023-02-04T00:20:05;12.52;;;6.47;;
42192;SDS011;52467;40.114;18.306;2023-02-04T00:22:32;13.95;;;6.63;;
42192;SDS011;52467;40.114;18.306;2023-02-04T00:24:59;12.67;;;6.40;;
42192;SDS011;52467;40.114;18.306;2023-02-04T00:27:27;11.98;;;6.38;;
42192;SDS011;52467;40.114;18.306;2023-02-04T00:29:54;11.40;;;6.40;;
42192;SDS011;52467;40.114;18.306;2023-02-04T00:32:23;13.02;;;6.75;;
42192;SDS011;52467;40.114;18.306;2023-02-04T00:34:52;10.88;;;6.00;;
42192;SDS011;52467;40.114;18.306;2023-02-04T00:37:20;14.75;;;6.68;;
42192;SDS011;52467;40.114;18.306;2023-02-04T00:39:47;13.07;;;6.00;;
42192;SDS011;52467;40.114;18.306;2023-02-04T00:42:15;11.55;;;5.70;;
42192;SDS011;52467;40.114;18.306;2023-02-04T00:44:42;11.65;;;6.10;;
42192;SDS011;52467;40.114;18.306;2023-02-04T00:47:11;11.80;;;5.88;;
42192;SDS011;52467;40.114;18.306;2023-02-04T00:49:38;13.37;;;5.87;;
42192;SDS011;52467;40.114;18.306;2023-02-04T00:52:06;13.15;;;6.20;;
42192;SDS011;52467;40.114;18.306;2023-02-04T00:54:34;9.77;;;5.70;;
42192;SDS011;52467;40.114;18.306;2023-02-04T00:57:01;12.25;;;5.68;;
42192;SDS011;52467;40.114;18.306;2023-02-04T00:59:28;11.32;;;5.95;;
42192;SDS011;52467;40.114;18.306;2023-02-04T01:01:56;9.77;;;5.95;;
42192;SDS011;52467;40.114;18.306;2023-02-04T01:04:23;11.52;;;6.18;;
42192;SDS011;52467;40.114;18.306;2023-02-04T01:06:51;11.48;;;6.32;;
42192;SDS011;52467;40.114;18.306;2023-02-04T01:09:19;16.33;;;7.30;;
42192;SDS011;52467;40.114;18.306;2023-02-04T01:11:46;14.43;;;6.53;;
42192;SDS011;52467;40.114;18.306;2023-02-04T01:14:13;13.70;;;7.45;;
42192;SDS011;52467;40.114;18.306;2023-02-04T01:16:41;13.23;;;7.65;;
42192;SDS011;52467;40.114;18.306;2023-02-04T01:19:08;14.73;;;6.87;;
42192;SDS011;52467;40.114;18.306;2023-02-04T01:21:35;14.13;;;7.40;;
42192;SDS011;52467;40.114;18.306;2023-02-04T01:24:04;12.02;;;7.20;;
42192;SDS011;52467;40.114;18.306;2023-02-04T01:26:51;12.68;;;7.78;;
42192;SDS011;52467;40.114;18.306;2023-02-04T01:29:19;13.05;;;7.60;;
42192;SDS011;52467;40.114;18.306;2023-02-04T01:31:46;14.10;;;7.20;;
42192;SDS011;52467;40.114;18.306;2023-02-04T01:34:14;14.05;;;6.88;;
42192;SDS011;52467;40.114;18.306;2023-02-04T01:36:42;11.73;;;6.68;;
42192;SDS011;52467;40.114;18.306;2023-02-04T01:39:10;12.43;;;6.32;;
42192;SDS011;52467;40.114;18.306;2023-02-04T01:41:37;11.50;;;6.43;;
42192;SDS011;52467;40.114;18.306;2023-02-04T01:44:04;12.55;;;6.40;;
42192;SDS011;52467;40.114;18.306;2023-02-04T01:46:32;15.27;;;6.30;;
42192;SDS011;52467;40.114;18.306;2023-02-04T01:49:03;12.40;;;6.00;;
42192;SDS011;52467;40.114;18.306;2023-02-04T01:51:32;10.25;;;5.93;;
42192;SDS011;52467;40.114;18.306;2023-02-04T01:54:00;13.73;;;5.85;;
42192;SDS011;52467;40.114;18.306;2023-02-04T01:56:29;13.57;;;6.10;;
42192;SDS011;52467;40.114;18.306;2023-02-04T01:58:57;11.45;;;6.10;;
42192;SDS011;52467;40.114;18.306;2023-02-04T02:01:35;12.80;;;6.47;;
42192;SDS011;52467;40.114;18.306;2023-02-04T02:04:04;11.63;;;5.93;;
42192;SDS011;52467;40.114;18.306;2023-02-04T02:06:32;14.98;;;6.40;;
42192;SDS011;52467;40.114;18.306;2023-02-04T02:09:00;13.68;;;6.53;;
42192;SDS011;52467;40.114;18.306;2023-02-04T02:11:28;14.23;;;6.43;;
42192;SDS011;52467;40.114;18.306;2023-02-04T02:13:55;12.80;;;6.55;;
42192;SDS011;52467;40.114;18.306;2023-02-04T02:16:23;12.37;;;6.00;;
42192;SDS011;52467;40.114;18.306;2023-02-04T02:18:50;14.15;;;6.75;;
42192;SDS011;52467;40.114;18.306;2023-02-04T02:21:23;15.82;;;6.85;;
42192;SDS011;52467;40.114;18.306;2023-02-04T02:24:27;12.68;;;5.88;;
42192;SDS011;52467;40.114;18.306;2023-02-04T02:26:58;12.63;;;6.43;;
42192;SDS011;52467;40.114;18.306;2023-02-04T02:29:27;14.23;;;6.57;;
42192;SDS011;52467;40.114;18.306;2023-02-04T02:31:55;14.48;;;6.95;;
42192;SDS011;52467;40.114;18.306;2023-02-04T02:34:25;12.63;;;6.90;;
42192;SDS011;52467;40.114;18.306;2023-02-04T02:36:54;14.15;;;6.68;;
42192;SDS011;52467;40.114;18.306;2023-02-04T02:39:22;14.10;;;5.80;;
42192;SDS011;52467;40.114;18.306;2023-02-04T02:41:50;13.15;;;6.57;;
42192;SDS011;52467;40.114;18.306;2023-02-04T02:44:17;14.93;;;6.53;;
42192;SDS011;52467;40.114;18.306;2023-02-04T02:46:45;13.18;;;5.82;;
42192;SDS011;52467;40.114;18.306;2023-02-04T02:49:13;17.42;;;6.13;;
42192;SDS011;52467;40.114;18.306;2023-02-04T02:51:42;17.60;;;5.95;;
42192;SDS011;52467;40.114;18.306;2023-02-04T02:54:18;15.85;;;6.03;;
42192;SDS011;52467;40.114;18.306;2023-02-04T02:56:52;14.52;;;5.32;;
42192;SDS011;52467;40.114;18.306;2023-02-04T02:59:21;11.88;;;5.55;;
42192;SDS011;52467;40.114;18.306;2023-02-04T03:01:50;13.70;;;5.00;;
42192;SDS011;52467;40.114;18.306;2023-02-04T03:04:21;13.48;;;4.55;;
42192;SDS011;52467;40.114;18.306;2023-02-04T03:06:48;14.02;;;5.35;;
42192;SDS011;52467;40.114;18.306;2023-02-04T03:09:16;13.38;;;4.78;;
42192;SDS011;52467;40.114;18.306;2023-02-04T03:11:46;11.13;;;4.90;;
42192;SDS011;52467;40.114;18.306;2023-02-04T03:14:14;13.68;;;4.93;;
42192;SDS011;52467;40.114;18.306;2023-02-04T03:16:41;11.10;;;4.55;;
42192;SDS011;52467;40.114;18.306;2023-02-04T03:19:10;10.45;;;4.75;;
42192;SDS011;52467;40.114;18.306;2023-02-04T03:21:37;12.63;;;4.57;;
42192;SDS011;52467;40.114;18.306;2023-02-04T03:24:05;9.95;;;4.57;;
42192;SDS011;52467;40.114;18.306;2023-02-04T03:26:35;8.43;;;4.40;;
42192;SDS011;52467;40.114;18.306;2023-02-04T03:29:09;14.70;;;4.30;;
42192;SDS011;52467;40.114;18.306;2023-02-04T03:31:37;9.18;;;3.90;;
42192;SDS011;52467;40.114;18.306;2023-02-04T03:34:04;11.30;;;4.10;;
42192;SDS011;52467;40.114;18.306;2023-02-04T03:36:32;8.95;;;3.90;;
42192;SDS011;52467;40.114;18.306;2023-02-04T03:38:59;9.87;;;4.10;;
42192;SDS011;52467;40.114;18.306;2023-02-04T03:41:28;10.40;;;3.92;;
42192;SDS011;52467;40.114;18.306;2023-02-04T03:43:56;9.57;;;4.00;;
42192;SDS011;52467;40.114;18.306;2023-02-04T03:46:23;11.85;;;3.92;;
42192;SDS011;52467;40.114;18.306;2023-02-04T03:48:51;11.70;;;3.90;;
42192;SDS011;52467;40.114;18.306;2023-02-04T03:51:18;9.95;;;3.58;;
42192;SDS011;52467;40.114;18.306;2023-02-04T03:53:46;8.98;;;3.70;;
42192;SDS011;52467;40.114;18.306;2023-02-04T03:56:13;8.43;;;3.50;;
42192;SDS011;52467;40.114;18.306;2023-02-04T03:58:40;10.88;;;3.90;;
42192;SDS011;52467;40.114;18.306;2023-02-04T04:01:08;9.55;;;4.05;;
42192;SDS011;52467;40.114;18.306;2023-02-04T04:03:35;12.18;;;4.45;;
42192;SDS011;52467;40.114;18.306;2023-02-04T04:06:02;8.90;;;3.70;;
42192;SDS011;52467;40.114;18.306;2023-02-04T04:08:32;10.30;;;4.30;;
42192;SDS011;52467;40.114;18.306;2023-02-04T04:11:00;11.93;;;4.30;;
42192;SDS011;52467;40.114;18.306;2023-02-04T04:13:27;11.40;;;4.07;;
42192;SDS011;52467;40.114;18.306;2023-02-04T04:15:54;10.30;;;4.03;;
42192;SDS011;52467;40.114;18.306;2023-02-04T04:18:22;9.57;;;4.30;;
42192;SDS011;52467;40.114;18.306;2023-02-04T04:20:49;8.27;;;3.58;;
42192;SDS011;52467;40.114;18.306;2023-02-04T04:23:16;8.00;;;4.10;;
42192;SDS011;52467;40.114;18.306;2023-02-04T04:25:43;10.77;;;4.38;;
42192;SDS011;52467;40.114;18.306;2023-02-04T04:28:11;9.38;;;3.92;;
42192;SDS011;52467;40.114;18.306;2023-02-04T04:30:38;10.73;;;4.77;;
42192;SDS011;52467;40.114;18.306;2023-02-04T04:33:06;8.52;;;4.30;;
42192;SDS011;52467;40.114;18.306;2023-02-04T04:35:33;8.75;;;4.57;;
42192;SDS011;52467;40.114;18.306;2023-02-04T04:38:01;8.90;;;4.47;;
42192;SDS011;52467;40.114;18.306;2023-02-04T04:40:28;11.35;;;4.20;;
42192;SDS011;52467;40.114;18.306;2023-02-04T04:42:56;12.52;;;4.65;;
42192;SDS011;52467;40.114;18.306;2023-02-04T04:45:23;11.13;;;4.43;;
42192;SDS011;52467;40.114;18.306;2023-02-04T04:47:50;11.75;;;4.82;;
42192;SDS011;52467;40.114;18.306;2023-02-04T04:50:18;9.25;;;4.13;;
42192;SDS011;52467;40.114;18.306;2023-02-04T04:52:45;11.00;;;4.63;;
42192;SDS011;52467;40.114;18.306;2023-02-04T04:55:12;9.73;;;4.22;;
42192;SDS011;52467;40.114;18.306;2023-02-04T04:57:40;9.57;;;4.88;;
42192;SDS011;52467;40.114;18.306;2023-02-04T05:00:07;10.00;;;4.90;;
42192;SDS011;52467;40.114;18.306;2023-02-04T05:02:36;11.27;;;4.50;;
42192;SDS011;52467;40.114;18.306;2023-02-04T05:05:03;8.25;;;4.80;;
42192;SDS011;52467;40.114;18.306;2023-02-04T05:07:30;8.10;;;4.97;;
42192;SDS011;52467;40.114;18.306;2023-02-04T05:09:58;12.60;;;4.30;;
42192;SDS011;52467;40.114;18.306;2023-02-04T05:12:25;10.57;;;4.88;;
42192;SDS011;52467;40.114;18.306;2023-02-04T05:14:52;10.60;;;4.25;;
42192;SDS011;52467;40.114;18.306;2023-02-04T05:17:19;8.97;;;4.67;;
42192;SDS011;52467;40.114;18.306;2023-02-04T05:19:47;14.27;;;4.82;;
42192;SDS011;52467;40.114;18.306;2023-02-04T05:22:14;7.80;;;4.25;;
42192;SDS011;52467;40.114;18.306;2023-02-04T05:24:41;9.13;;;4.00;;
42192;SDS011;52467;40.114;18.306;2023-02-04T05:27:08;10.93;;;4.78;;
42192;SDS011;52467;40.114;18.306;2023-02-04T05:29:36;9.30;;;4.30;;
42192;SDS011;52467;40.114;18.306;2023-02-04T05:32:03;8.45;;;4.45;;
42192;SDS011;52467;40.114;18.306;2023-02-04T05:34:30;10.43;;;4.35;;
42192;SDS011;52467;40.114;18.306;2023-02-04T05:36:57;8.35;;;4.68;;
42192;SDS011;52467;40.114;18.306;2023-02-04T05:39:25;10.57;;;4.87;;
42192;SDS011;52467;40.114;18.306;2023-02-04T05:41:52;10.15;;;5.10;;
42192;SDS011;52467;40.114;18.306;2023-02-04T05:44:19;16.30;;;5.60;;
42192;SDS011;52467;40.114;18.306;2023-02-04T05:46:46;11.25;;;4.75;;
42192;SDS011;52467;40.114;18.306;2023-02-04T05:49:14;9.32;;;4.68;;
42192;SDS011;52467;40.114;18.306;2023-02-04T05:51:41;10.43;;;5.38;;
42192;SDS011;52467;40.114;18.306;2023-02-04T05:54:08;11.80;;;5.55;;
42192;SDS011;52467;40.114;18.306;2023-02-04T05:56:35;12.93;;;5.75;;
42192;SDS011;52467;40.114;18.306;2023-02-04T05:59:02;12.25;;;5.78;;
42192;SDS011;52467;40.114;18.306;2023-02-04T06:01:30;13.07;;;5.20;;
42192;SDS011;52467;40.114;18.306;2023-02-04T06:03:57;13.43;;;4.80;;
42192;SDS011;52467;40.114;18.306;2023-02-04T06:06:24;11.70;;;5.43;;
42192;SDS011;52467;40.114;18.306;2023-02-04T06:08:51;11.88;;;5.38;;
42192;SDS011;52467;40.114;18.306;2023-02-04T06:11:19;14.70;;;5.47;;
42192;SDS011;52467;40.114;18.306;2023-02-04T06:13:46;13.90;;;5.80;;
42192;SDS011;52467;40.114;18.306;2023-02-04T06:16:13;13.73;;;6.90;;
42192;SDS011;52467;40.114;18.306;2023-02-04T06:18:40;19.90;;;7.80;;
42192;SDS011;52467;40.114;18.306;2023-02-04T06:21:08;18.50;;;8.43;;
42192;SDS011;52467;40.114;18.306;2023-02-04T06:23:35;16.73;;;7.70;;
42192;SDS011;52467;40.114;18.306;2023-02-04T06:26:02;14.32;;;7.35;;
42192;SDS011;52467;40.114;18.306;2023-02-04T06:28:30;22.75;;;7.65;;
42192;SDS011;52467;40.114;18.306;2023-02-04T06:30:57;15.23;;;6.53;;
42192;SDS011;52467;40.114;18.306;2023-02-04T06:33:24;14.55;;;6.53;;
42192;SDS011;52467;40.114;18.306;2023-02-04T06:35:51;12.48;;;6.00;;
42192;SDS011;52467;40.114;18.306;2023-02-04T06:38:19;13.25;;;5.68;;
42192;SDS011;52467;40.114;18.306;2023-02-04T06:40:46;12.05;;;6.13;;
42192;SDS011;52467;40.114;18.306;2023-02-04T06:43:19;11.85;;;5.20;;
42192;SDS011;52467;40.114;18.306;2023-02-04T06:45:48;11.85;;;5.13;;
42192;SDS011;52467;40.114;18.306;2023-02-04T06:48:17;12.05;;;4.85;;
42192;SDS011;52467;40.114;18.306;2023-02-04T06:50:44;12.35;;;4.75;;
42192;SDS011;52467;40.114;18.306;2023-02-04T06:53:12;10.18;;;4.57;;
42192;SDS011;52467;40.114;18.306;2023-02-04T06:55:39;13.43;;;5.22;;
42192;SDS011;52467;40.114;18.306;2023-02-04T06:58:07;10.27;;;4.68;;
42192;SDS011;52467;40.114;18.306;2023-02-04T07:00:34;10.80;;;5.10;;
42192;SDS011;52467;40.114;18.306;2023-02-04T07:03:01;10.53;;;5.20;;
42192;SDS011;52467;40.114;18.306;2023-02-04T07:05:29;8.50;;;4.90;;
42192;SDS011;52467;40.114;18.306;2023-02-04T07:07:56;10.23;;;5.10;;
42192;SDS011;52467;40.114;18.306;2023-02-04T07:10:24;11.77;;;5.05;;
42192;SDS011;52467;40.114;18.306;2023-02-04T07:12:51;11.85;;;5.07;;
42192;SDS011;52467;40.114;18.306;2023-02-04T07:15:18;12.18;;;5.07;;
42192;SDS011;52467;40.114;18.306;2023-02-04T07:17:46;14.23;;;6.93;;
42192;SDS011;52467;40.114;18.306;2023-02-04T07:20:13;17.95;;;7.20;;
42192;SDS011;52467;40.114;18.306;2023-02-04T07:22:40;13.00;;;5.72;;
42192;SDS011;52467;40.114;18.306;2023-02-04T07:25:08;13.85;;;6.80;;
42192;SDS011;52467;40.114;18.306;2023-02-04T07:27:37;15.40;;;7.13;;
42192;SDS011;52467;40.114;18.306;2023-02-04T07:30:04;14.55;;;7.50;;
42192;SDS011;52467;40.114;18.306;2023-02-04T07:32:31;12.65;;;7.43;;
42192;SDS011;52467;40.114;18.306;2023-02-04T07:34:59;18.48;;;8.00;;
42192;SDS011;52467;40.114;18.306;2023-02-04T07:37:26;17.33;;;8.25;;
42192;SDS011;52467;40.114;18.306;2023-02-04T07:39:54;15.68;;;8.27;;
42192;SDS011;52467;40.114;18.306;2023-02-04T07:42:21;19.52;;;8.95;;
42192;SDS011;52467;40.114;18.306;2023-02-04T07:44:57;25.50;;;10.70;;
42192;SDS011;52467;40.114;18.306;2023-02-04T07:47:24;25.47;;;11.67;;
42192;SDS011;52467;40.114;18.306;2023-02-04T07:49:51;27.40;;;12.50;;
42192;SDS011;52467;40.114;18.306;2023-02-04T07:52:23;29.30;;;14.20;;
42192;SDS011;52467;40.114;18.306;2023-02-04T07:54:52;28.07;;;14.57;;
42192;SDS011;52467;40.114;18.306;2023-02-04T07:57:19;31.42;;;14.15;;
42192;SDS011;52467;40.114;18.306;2023-02-04T07:59:47;29.70;;;15.00;;
42192;SDS011;52467;40.114;18.306;2023-02-04T08:02:14;27.65;;;14.40;;
42192;SDS011;52467;40.114;18.306;2023-02-04T08:04:41;22.42;;;11.23;;
42192;SDS011;52467;40.114;18.306;2023-02-04T08:07:08;25.75;;;12.15;;
42192;SDS011;52467;40.114;18.306;2023-02-04T08:09:36;22.25;;;10.55;;
42192;SDS011;52467;40.114;18.306;2023-02-04T08:12:04;24.37;;;10.97;;
42192;SDS011;52467;40.114;18.306;2023-02-04T08:14:31;24.13;;;9.60;;
42192;SDS011;52467;40.114;18.306;2023-02-04T08:16:58;18.35;;;8.75;;
42192;SDS011;52467;40.114;18.306;2023-02-04T08:19:26;17.30;;;9.07;;
42192;SDS011;52467;40.114;18.306;2023-02-04T08:21:53;20.10;;;7.68;;
42192;SDS011;52467;40.114;18.306;2023-02-04T08:24:20;17.17;;;7.20;;
42192;SDS011;52467;40.114;18.306;2023-02-04T08:26:47;11.77;;;6.00;;
42192;SDS011;52467;40.114;18.306;2023-02-04T08:29:16;14.30;;;7.03;;
42192;SDS011;52467;40.114;18.306;2023-02-04T08:31:43;13.32;;;7.22;;
42192;SDS011;52467;40.114;18.306;2023-02-04T08:34:13;21.50;;;8.00;;
42192;SDS011;52467;40.114;18.306;2023-02-04T08:36:40;20.83;;;9.27;;
42192;SDS011;52467;40.114;18.306;2023-02-04T08:39:08;14.15;;;7.25;;
42192;SDS011;52467;40.114;18.306;2023-02-04T08:41:35;13.38;;;7.25;;
42192;SDS011;52467;40.114;18.306;2023-02-04T08:44:02;13.95;;;7.53;;
42192;SDS011;52467;40.114;18.306;2023-02-04T08:46:30;14.45;;;7.13;;
42192;SDS011;52467;40.114;18.306;2023-02-04T08:48:58;19.83;;;8.00;;
42192;SDS011;52467;40.114;18.306;2023-02-04T08:51:25;15.35;;;8.30;;
42192;SDS011;52467;40.114;18.306;2023-02-04T08:53:53;17.02;;;8.40;;
42192;SDS011;52467;40.114;18.306;2023-02-04T08:56:20;15.43;;;7.70;;
42192;SDS011;52467;40.114;18.306;2023-02-04T08:58:47;17.30;;;9.10;;
42192;SDS011;52467;40.114;18.306;2023-02-04T09:01:14;20.65;;;8.60;;
42192;SDS011;52467;40.114;18.306;2023-02-04T09:03:41;16.02;;;7.57;;
42192;SDS011;52467;40.114;18.306;2023-02-04T09:06:09;15.40;;;7.40;;
42192;SDS011;52467;40.114;18.306;2023-02-04T09:08:36;12.60;;;7.00;;
42192;SDS011;52467;40.114;18.306;2023-02-04T09:11:03;14.35;;;7.57;;
42192;SDS011;52467;40.114;18.306;2023-02-04T09:13:31;12.32;;;6.75;;
42192;SDS011;52467;40.114;18.306;2023-02-04T09:15:59;11.85;;;6.15;;
42192;SDS011;52467;40.114;18.306;2023-02-04T09:18:26;16.90;;;6.55;;
42192;SDS011;52467;40.114;18.306;2023-02-04T09:20:53;12.00;;;6.67;;
42192;SDS011;52467;40.114;18.306;2023-02-04T09:23:21;12.07;;;6.40;;
42192;SDS011;52467;40.114;18.306;2023-02-04T09:25:49;10.20;;;6.15;;
42192;SDS011;52467;40.114;18.306;2023-02-04T09:28:17;12.57;;;7.23;;
42192;SDS011;52467;40.114;18.306;2023-02-04T09:30:44;11.10;;;6.28;;
42192;SDS011;52467;40.114;18.306;2023-02-04T09:33:13;13.85;;;6.28;;
42192;SDS011;52467;40.114;18.306;2023-02-04T09:35:42;11.10;;;5.53;;
42192;SDS011;52467;40.114;18.306;2023-02-04T09:38:10;12.15;;;5.28;;
42192;SDS011;52467;40.114;18.306;2023-02-04T09:40:41;10.50;;;4.93;;
42192;SDS011;52467;40.114;18.306;2023-02-04T09:43:12;12.15;;;5.20;;
42192;SDS011;52467;40.114;18.306;2023-02-04T09:45:42;9.75;;;4.60;;
42192;SDS011;52467;40.114;18.306;2023-02-04T09:48:10;10.80;;;4.57;;
42192;SDS011;52467;40.114;18.306;2023-02-04T09:50:39;9.27;;;4.20;;
42192;SDS011;52467;40.114;18.306;2023-02-04T09:53:09;10.23;;;4.45;;
42192;SDS011;52467;40.114;18.306;2023-02-04T09:55:39;10.38;;;4.57;;
42192;SDS011;52467;40.114;18.306;2023-02-04T09:58:20;10.57;;;5.00;;
42192;SDS011;52467;40.114;18.306;2023-02-04T10:00:55;12.88;;;4.68;;
42192;SDS011;52467;40.114;18.306;2023-02-04T10:03:26;9.48;;;4.72;;
42192;SDS011;52467;40.114;18.306;2023-02-04T10:05:53;10.45;;;4.57;;
42192;SDS011;52467;40.114;18.306;2023-02-04T10:08:25;13.38;;;4.93;;
42192;SDS011;52467;40.114;18.306;2023-02-04T10:10:55;10.07;;;4.35;;
42192;SDS011;52467;40.114;18.306;2023-02-04T10:13:29;10.13;;;4.80;;
42192;SDS011;52467;40.114;18.306;2023-02-04T10:15:57;9.97;;;5.20;;
42192;SDS011;52467;40.114;18.306;2023-02-04T10:18:26;10.88;;;5.22;;
42192;SDS011;52467;40.114;18.306;2023-02-04T10:21:10;12.97;;;4.70;;
42192;SDS011;52467;40.114;18.306;2023-02-04T10:23:41;12.50;;;4.88;;
42192;SDS011;52467;40.114;18.306;2023-02-04T10:26:10;11.20;;;5.03;;
42192;SDS011;52467;40.114;18.306;2023-02-04T10:28:38;10.20;;;4.65;;
42192;SDS011;52467;40.114;18.306;2023-02-04T10:31:10;9.32;;;4.90;;
42192;SDS011;52467;40.114;18.306;2023-02-04T10:34:34;9.18;;;4.80;;
42192;SDS011;52467;40.114;18.306;2023-02-04T10:37:13;9.52;;;5.13;;
42192;SDS011;52467;40.114;18.306;2023-02-04T10:39:45;12.45;;;5.18;;
42192;SDS011;52467;40.114;18.306;2023-02-04T10:42:23;8.43;;;4.82;;
42192;SDS011;52467;40.114;18.306;2023-02-04T10:44:51;11.80;;;4.90;;
42192;SDS011;52467;40.114;18.306;2023-02-04T10:47:20;11.13;;;5.20;;
42192;SDS011;52467;40.114;18.306;2023-02-04T10:50:06;9.55;;;5.32;;
42192;SDS011;52467;40.114;18.306;2023-02-04T10:52:42;10.43;;;5.10;;
42192;SDS011;52467;40.114;18.306;2023-02-04T10:55:21;9.30;;;5.00;;
42192;SDS011;52467;40.114;18.306;2023-02-04T10:57:52;13.07;;;5.57;;
42192;SDS011;52467;40.114;18.306;2023-02-04T11:00:23;11.65;;;5.60;;
42192;SDS011;52467;40.114;18.306;2023-02-04T11:02:58;10.57;;;5.13;;
42192;SDS011;52467;40.114;18.306;2023-02-04T11:05:30;7.50;;;4.63;;
42192;SDS011;52467;40.114;18.306;2023-02-04T11:07:59;7.93;;;3.70;;
42192;SDS011;52467;40.114;18.306;2023-02-04T11:10:28;9.32;;;3.20;;
42192;SDS011;52467;40.114;18.306;2023-02-04T11:12:59;10.13;;;3.90;;
42192;SDS011;52467;40.114;18.306;2023-02-04T11:18:06;6.93;;;3.47;;
42192;SDS011;52467;40.114;18.306;2023-02-04T11:20:42;7.40;;;3.28;;
42192;SDS011;52467;40.114;18.306;2023-02-04T11:33:48;11.35;;;4.97;;
42192;SDS011;52467;40.114;18.306;2023-02-04T11:36:17;9.30;;;4.45;;
42192;SDS011;52467;40.114;18.306;2023-02-04T11:38:44;8.32;;;4.40;;
42192;SDS011;52467;40.114;18.306;2023-02-04T11:41:17;9.32;;;3.47;;
42192;SDS011;52467;40.114;18.306;2023-02-04T11:43:50;10.48;;;3.10;;
42192;SDS011;52467;40.114;18.306;2023-02-04T11:46:18;6.70;;;3.00;;
42192;SDS011;52467;40.114;18.306;2023-02-04T11:48:46;7.05;;;3.00;;
42192;SDS011;52467;40.114;18.306;2023-02-04T11:51:27;5.82;;;2.72;;
42192;SDS011;52467;40.114;18.306;2023-02-04T11:53:57;7.10;;;2.78;;
42192;SDS011;52467;40.114;18.306;2023-02-04T11:56:26;9.68;;;3.70;;
42192;SDS011;52467;40.114;18.306;2023-02-04T11:58:55;6.93;;;3.42;;
42192;SDS011;52467;40.114;18.306;2023-02-04T12:01:24;8.63;;;3.83;;
42192;SDS011;52467;40.114;18.306;2023-02-04T12:03:57;8.40;;;3.80;;
42192;SDS011;52467;40.114;18.306;2023-02-04T12:06:27;7.88;;;4.07;;
42192;SDS011;52467;40.114;18.306;2023-02-04T12:09:06;10.23;;;4.63;;
42192;SDS011;52467;40.114;18.306;2023-02-04T12:11:49;9.95;;;4.97;;
42192;SDS011;52467;40.114;18.306;2023-02-04T12:14:34;10.18;;;3.97;;
42192;SDS011;52467;40.114;18.306;2023-02-04T12:17:15;9.60;;;3.90;;
42192;SDS011;52467;40.114;18.306;2023-02-04T12:19:44;10.30;;;4.22;;
42192;SDS011;52467;40.114;18.306;2023-02-04T12:22:11;12.57;;;3.83;;
42192;SDS011;52467;40.114;18.306;2023-02-04T12:24:40;8.60;;;3.20;;
42192;SDS011;52467;40.114;18.306;2023-02-04T12:27:08;6.60;;;3.58;;
42192;SDS011;52467;40.114;18.306;2023-02-04T12:29:35;12.07;;;4.43;;
42192;SDS011;52467;40.114;18.306;2023-02-04T12:32:02;9.90;;;3.10;;
42192;SDS011;52467;40.114;18.306;2023-02-04T12:34:30;8.13;;;4.13;;
42192;SDS011;52467;40.114;18.306;2023-02-04T12:36:57;8.18;;;4.10;;
42192;SDS011;52467;40.114;18.306;2023-02-04T12:39:24;9.93;;;3.92;;
42192;SDS011;52467;40.114;18.306;2023-02-04T12:41:51;8.07;;;3.97;;
42192;SDS011;52467;40.114;18.306;2023-02-04T12:44:19;11.32;;;4.47;;
42192;SDS011;52467;40.114;18.306;2023-02-04T12:46:46;11.05;;;5.28;;
42192;SDS011;52467;40.114;18.306;2023-02-04T12:49:13;11.80;;;4.75;;
42192;SDS011;52467;40.114;18.306;2023-02-04T12:51:41;10.43;;;4.75;;
42192;SDS011;52467;40.114;18.306;2023-02-04T12:54:08;16.95;;;5.30;;
42192;SDS011;52467;40.114;18.306;2023-02-04T12:56:35;14.93;;;5.13;;
42192;SDS011;52467;40.114;18.306;2023-02-04T12:59:02;12.15;;;5.35;;
42192;SDS011;52467;40.114;18.306;2023-02-04T13:01:31;10.23;;;5.30;;
42192;SDS011;52467;40.114;18.306;2023-02-04T13:03:59;10.43;;;5.43;;
42192;SDS011;52467;40.114;18.306;2023-02-04T13:06:26;12.98;;;5.32;;
42192;SDS011;52467;40.114;18.306;2023-02-04T13:08:53;10.98;;;5.43;;
42192;SDS011;52467;40.114;18.306;2023-02-04T13:11:20;12.70;;;5.10;;
42192;SDS011;52467;40.114;18.306;2023-02-04T13:13:48;12.85;;;5.18;;
42192;SDS011;52467;40.114;18.306;2023-02-04T13:16:15;10.37;;;4.97;;
42192;SDS011;52467;40.114;18.306;2023-02-04T13:18:45;7.57;;;3.72;;
42192;SDS011;52467;40.114;18.306;2023-02-04T13:21:12;9.18;;;3.08;;
42192;SDS011;52467;40.114;18.306;2023-02-04T13:23:39;5.43;;;2.40;;
42192;SDS011;52467;40.114;18.306;2023-02-04T13:26:06;3.23;;;1.60;;
42192;SDS011;52467;40.114;18.306;2023-02-04T13:28:35;2.67;;;1.47;;
42192;SDS011;52467;40.114;18.306;2023-02-04T13:31:02;2.33;;;1.30;;
42192;SDS011;52467;40.114;18.306;2023-02-04T13:33:30;3.50;;;1.23;;
42192;SDS011;52467;40.114;18.306;2023-02-04T13:35:57;1.50;;;0.90;;
42192;SDS011;52467;40.114;18.306;2023-02-04T13:38:24;1.38;;;0.90;;
42192;SDS011;52467;40.114;18.306;2023-02-04T13:40:52;2.00;;;1.05;;
42192;SDS011;52467;40.114;18.306;2023-02-04T13:43:19;2.40;;;0.90;;
42192;SDS011;52467;40.114;18.306;2023-02-04T13:45:46;1.80;;;1.13;;
42192;SDS011;52467;40.114;18.306;2023-02-04T13:48:14;4.38;;;1.70;;
42192;SDS011;52467;40.114;18.306;2023-02-04T13:50:42;2.55;;;1.42;;
42192;SDS011;52467;40.114;18.306;2023-02-04T13:53:09;5.03;;;1.45;;
42192;SDS011;52467;40.114;18.306;2023-02-04T13:55:37;2.05;;;1.40;;
42192;SDS011;52467;40.114;18.306;2023-02-04T13:58:04;6.70;;;2.67;;
42192;SDS011;52467;40.114;18.306;2023-02-04T14:00:31;7.70;;;2.00;;
42192;SDS011;52467;40.114;18.306;2023-02-04T14:02:58;2.70;;;1.58;;
42192;SDS011;52467;40.114;18.306;2023-02-04T14:05:26;9.63;;;1.55;;
42192;SDS011;52467;40.114;18.306;2023-02-04T14:07:53;9.65;;;1.60;;
42192;SDS011;52467;40.114;18.306;2023-02-04T14:10:20;6.43;;;1.50;;
42192;SDS011;52467;40.114;18.306;2023-02-04T14:12:50;9.45;;;1.90;;
42192;SDS011;52467;40.114;18.306;2023-02-04T14:15:18;5.65;;;1.50;;
42192;SDS011;52467;40.114;18.306;2023-02-04T14:17:45;8.80;;;2.33;;
42192;SDS011;52467;40.114;18.306;2023-02-04T14:20:12;7.10;;;2.28;;
42192;SDS011;52467;40.114;18.306;2023-02-04T14:22:40;6.53;;;2.25;;
42192;SDS011;52467;40.114;18.306;2023-02-04T14:25:07;5.53;;;2.33;;
42192;SDS011;52467;40.114;18.306;2023-02-04T14:27:35;10.43;;;3.15;;
42192;SDS011;52467;40.114;18.306;2023-02-04T14:30:26;9.98;;;3.22;;
42192;SDS011;52467;40.114;18.306;2023-02-04T14:32:54;6.97;;;3.10;;
42192;SDS011;52467;40.114;18.306;2023-02-04T14:35:22;9.73;;;2.80;;
42192;SDS011;52467;40.114;18.306;2023-02-04T14:37:50;7.70;;;2.47;;
42192;SDS011;52467;40.114;18.306;2023-02-04T14:40:17;9.88;;;2.90;;
42192;SDS011;52467;40.114;18.306;2023-02-04T14:42:45;10.13;;;3.35;;
42192;SDS011;52467;40.114;18.306;2023-02-04T14:45:13;11.88;;;3.85;;
42192;SDS011;52467;40.114;18.306;2023-02-04T14:47:41;9.87;;;3.60;;